This is the latest recevied weather packets stored in our database for station/object SP3OTE-2. If no packets are shown the sender has not sent any weather packets the latest 10 day(s).
| Time | Temp. | Humidity | Pressure | Rain* | Wind** | Luminosity | Snow |
|---|---|---|---|---|---|---|---|
| 1777963608 | 19.44° C | 47% | 1009.7 hPa | - | - | - | - |
| 1777963008 | 18.89° C | 48% | 1009.7 hPa | - | - | - | - |
| 1777962408 | 18.33° C | 51% | 1009.8 hPa | - | - | - | - |
| 1777961807 | 17.78° C | 52% | 1009.9 hPa | - | - | - | - |
| 1777961207 | 17.22° C | 57% | 1010 hPa | - | - | - | - |
| 1777960607 | 16.67° C | 61% | 1010.1 hPa | - | - | - | - |
| 1777960007 | 16.67° C | 62% | 1010.1 hPa | - | - | - | - |
| 1777959406 | 16.11° C | 71% | 1010.1 hPa | - | - | - | - |
| 1777958806 | 15° C | 76% | 1010.2 hPa | - | - | - | - |
| 1777958206 | 14.44° C | 83% | 1010.2 hPa | - | - | - | - |
| 1777957606 | 13.89° C | 85% | 1010.2 hPa | - | - | - | - |
| 1777957006 | 13.33° C | 86% | 1010.2 hPa | - | - | - | - |
| 1777956405 | 13.33° C | 86% | 1010.2 hPa | - | - | - | - |
| 1777955805 | 13.33° C | 87% | 1010.1 hPa | - | - | - | - |
| 1777955205 | 12.78° C | 88% | 1010.1 hPa | - | - | - | - |
| 1777954605 | 12.22° C | 88% | 1010.1 hPa | - | - | - | - |
| 1777954004 | 11.67° C | 87% | 1010.4 hPa | - | - | - | - |
| 1777953404 | 12.22° C | 86% | 1010.4 hPa | - | - | - | - |
| 1777952804 | 12.22° C | 86% | 1010.4 hPa | - | - | - | - |
| 1777952203 | 12.22° C | 87% | 1010.4 hPa | - | - | - | - |
| 1777951603 | 11.67° C | 87% | 1010.5 hPa | - | - | - | - |
| 1777951003 | 12.22° C | 86% | 1010.4 hPa | - | - | - | - |
| 1777950403 | 11.67° C | 87% | 1010.5 hPa | - | - | - | - |
| 1777949803 | 11.67° C | 86% | 1010.6 hPa | - | - | - | - |
| 1777949202 | 11.67° C | 85% | 1010.7 hPa | - | - | - | - |
* Rain since midnight (hover to see other rain measurements)
** Current wind speed in m/s (hover to see current wind gust speed)